Impacts TAF Board INFO
FOR SITUATIONAL AWARENESS. NOT TO BE USED FOR FLIGHT PLANNING PURPOSES.
IDs:

KLAX - Los Angeles Intl, CA, US

Issued at 0257 UTC 17 Aug 2018
Updated at 0524 UTC 17 Aug 2018
Potential Impact None Slight Moderate High
Time0453Z 17/06Z 17/07Z 17/08Z 17/09Z 17/10Z 17/11Z 17/12Z 17/13Z 17/14Z 17/15Z 17/16Z 17/17Z 17/18Z>>
Type OBS PRVL
  [TEMP]  
PRVL
  [TEMP]  
PRVL PRVL PRVL PRVL PRVL PRVL PRVL PRVL PRVL PRVL PRVL
VIS 10 >6 >6 >6 >6 >6 >6 >6 >6 >6 >6 >6 >6 >6
CIG 13 --
  [13]  
--
  [13]  
11 11 11 11 16 16 16 16 16 -- --
Cover BKN SCT
  [BKN]  
SCT
  [BKN]  
BKN BKN BKN BKN OVC OVC OVC OVC OVC SCT SCT
FltCat MVFR VFR
  [MVFR]  
VFR
  [MVFR]  
MVFR MVFR MVFR MVFR MVFR MVFR MVFR MVFR MVFR VFR VFR
WX -- --
  [--]  
--
  [--]  
-- -- -- -- -- -- -- -- -- -- --
WDir 270 250
[250]
250
[250]
VRB VRB VRB VRB VRB VRB VRB VRB VRB 260 260
WSpd 9 6
  [6]  
6
  [6]  
3 3 3 3 3 3 3 3 3 8 8
WGst -- --
  [--]  
--
  [--]  
-- -- -- -- -- -- -- -- -- -- --

Raw TAF
KLAX 170257Z 1703/1806 25006KT P6SM SCT013
  TEMPO 1704/1708 BKN013
  FM170800 VRB03KT P6SM BKN011
  FM171200 VRB03KT P6SM OVC016
  FM171630 26008KT P6SM SCT016
  FM172000 26012KT P6SM FEW016
  FM180400 25006KT P6SM SCT011


Raw METAR
KLAX 170453Z 27009KT 10SM BKN013 23/19 A3003 RMK AO2 SLP167 T02280194
KLAX 170353Z 28007KT 10SM BKN011 23/20 A3002 RMK AO2 SLP163 T02280200
KLAX 170342Z 26007KT 10SM BKN011 23/20 A3002 RMK AO2 T02330200
KLAX 170253Z COR 26007KT 9SM FEW012 FEW150 23/20 A3001 RMK AO2 SLP158 T02330200 53008

METAR Board
Radar Display
Forecast Discussion

FOR SITUATIONAL AWARENESS. NOT TO BE USED FOR FLIGHT PLANNING PURPOSES.